createdAt,value
2022-12-13T00:01:52.062Z,16.52
2022-12-13T00:04:21.629Z,17.48
2022-12-13T00:06:49.810Z,17.15
2022-12-13T00:09:19.149Z,17.70
2022-12-13T00:11:49.036Z,17.75
2022-12-13T00:16:47.690Z,17.25
2022-12-13T00:19:15.956Z,18.65
2022-12-13T00:21:48.125Z,19.58
2022-12-13T00:24:16.153Z,18.55
2022-12-13T00:26:43.634Z,20.00
2022-12-13T00:29:15.831Z,18.58
2022-12-13T00:32:02.965Z,17.95
2022-12-13T00:34:30.672Z,19.77
2022-12-13T00:37:01.240Z,20.05
2022-12-13T00:39:30.843Z,19.75
2022-12-13T00:41:57.950Z,17.83
2022-12-13T00:44:26.342Z,20.23
2022-12-13T00:46:58.198Z,18.75
2022-12-13T00:49:28.797Z,18.52
2022-12-13T00:51:55.912Z,18.50
2022-12-13T00:54:25.801Z,19.73
2022-12-13T00:56:56.064Z,18.60
2022-12-13T00:59:23.725Z,18.92
2022-12-13T01:01:50.878Z,21.00
2022-12-13T01:04:20.684Z,18.30
2022-12-13T01:06:51.400Z,16.90
2022-12-13T01:09:29.735Z,19.70
2022-12-13T01:12:01.968Z,18.60
2022-12-13T01:14:30.381Z,17.67
2022-12-13T01:16:57.966Z,17.63
2022-12-13T01:19:29.175Z,19.00
2022-12-13T01:21:58.457Z,17.70
2022-12-13T01:24:28.505Z,17.30
2022-12-13T01:26:56.996Z,19.25
2022-12-13T01:29:25.921Z,19.48
2022-12-13T01:31:54.153Z,18.65
2022-12-13T01:34:27.522Z,17.80
2022-12-13T01:36:58.489Z,19.77
2022-12-13T01:39:27.572Z,17.52
2022-12-13T01:42:03.556Z,16.42
2022-12-13T01:44:58.441Z,16.60
2022-12-13T01:47:54.207Z,17.70
2022-12-13T01:50:31.909Z,17.05
2022-12-13T01:53:00.085Z,16.63
2022-12-13T01:55:32.459Z,17.42
2022-12-13T01:58:02.587Z,16.67
2022-12-13T02:00:30.063Z,16.75
2022-12-13T02:02:59.708Z,16.83
2022-12-13T02:05:47.992Z,16.55
2022-12-13T02:08:16.794Z,17.55
2022-12-13T02:10:44.620Z,16.85
2022-12-13T02:13:12.446Z,17.40
2022-12-13T02:16:22.098Z,15.80
2022-12-13T02:19:03.876Z,16.67
2022-12-13T02:22:10.365Z,17.08
2022-12-13T02:25:19.015Z,16.45
2022-12-13T02:28:00.836Z,16.33
2022-12-13T02:30:46.619Z,15.73
2022-12-13T02:33:28.514Z,17.30
2022-12-13T02:36:23.005Z,16.05
2022-12-13T02:38:56.568Z,15.85
2022-12-13T02:41:47.470Z,15.23
2022-12-13T02:44:23.186Z,14.90
2022-12-13T02:47:04.266Z,15.15
2022-12-13T02:49:35.030Z,14.10
2022-12-13T02:52:08.299Z,15.07
2022-12-13T02:54:37.002Z,15.05
2022-12-13T02:57:40.893Z,14.35
2022-12-13T03:00:16.143Z,15.10
2022-12-13T03:02:56.918Z,13.57
2022-12-13T03:05:51.616Z,13.88
2022-12-13T03:08:26.888Z,14.82
2022-12-13T03:11:09.640Z,14.35
2022-12-13T03:13:50.446Z,12.77
2022-12-13T03:16:36.394Z,13.05
2022-12-13T03:19:09.023Z,13.10
2022-12-13T03:21:49.743Z,13.18
2022-12-13T03:24:21.969Z,11.52
2022-12-13T03:26:53.613Z,11.98
2022-12-13T03:29:24.315Z,12.07
2022-12-13T03:31:53.574Z,13.63
2022-12-13T03:34:22.213Z,13.43
2022-12-13T03:36:57.530Z,12.68
2022-12-13T03:39:30.660Z,13.50
2022-12-13T03:41:58.118Z,14.23
2022-12-13T03:44:25.207Z,12.23
2022-12-13T03:47:00.724Z,12.15
2022-12-13T03:49:35.189Z,12.40
2022-12-13T03:52:03.459Z,12.68
2022-12-13T03:54:33.046Z,10.27
2022-12-13T03:57:00.658Z,10.43
2022-12-13T03:59:32.787Z,11.27
2022-12-13T04:02:04.837Z,10.85
2022-12-13T04:04:34.806Z,11.18
2022-12-13T04:07:04.778Z,10.20
2022-12-13T04:09:49.401Z,10.63
2022-12-13T04:12:35.024Z,10.20
2022-12-13T04:15:04.505Z,11.07
2022-12-13T04:17:34.517Z,9.65
2022-12-13T04:20:01.835Z,8.68
2022-12-13T04:22:31.765Z,8.65
2022-12-13T04:25:04.137Z,8.75
2022-12-13T04:27:37.963Z,8.27
2022-12-13T04:30:10.804Z,8.63
2022-12-13T04:32:40.879Z,8.73
2022-12-13T04:35:10.062Z,8.00
2022-12-13T04:37:38.286Z,9.25
2022-12-13T04:40:06.288Z,8.57
2022-12-13T04:42:33.672Z,8.65
2022-12-13T04:45:03.242Z,9.23
2022-12-13T04:47:31.272Z,7.72
2022-12-13T04:50:04.134Z,8.68
2022-12-13T04:52:31.637Z,9.35
2022-12-13T04:55:01.676Z,9.27
2022-12-13T04:57:31.719Z,10.18
2022-12-13T05:00:02.254Z,9.32
2022-12-13T05:02:32.461Z,14.07
2022-12-13T05:05:00.364Z,10.57
2022-12-13T05:07:32.958Z,12.73
2022-12-13T05:10:00.166Z,11.85
2022-12-13T05:12:29.673Z,9.85
2022-12-13T05:15:01.950Z,9.63
2022-12-13T05:17:29.436Z,8.63
2022-12-13T05:19:58.543Z,9.38
2022-12-13T05:22:29.490Z,9.55
2022-12-13T05:24:57.140Z,10.60
2022-12-13T05:27:26.856Z,9.55
2022-12-13T05:30:02.943Z,10.88
2022-12-13T05:32:44.856Z,10.73
2022-12-13T05:35:23.162Z,11.50
2022-12-13T05:37:58.087Z,10.90
2022-12-13T05:40:27.532Z,10.98
2022-12-13T05:43:01.961Z,9.57
2022-12-13T05:45:32.907Z,9.38
2022-12-13T05:48:05.760Z,9.75
2022-12-13T05:50:35.208Z,10.73
2022-12-13T05:53:07.613Z,10.57
2022-12-13T05:55:34.679Z,10.10
2022-12-13T05:58:03.256Z,12.00
2022-12-13T06:00:32.858Z,11.32
2022-12-13T06:03:03.363Z,10.23
2022-12-13T06:05:32.893Z,10.18
2022-12-13T06:08:01.264Z,11.52
2022-12-13T06:10:34.185Z,11.50
2022-12-13T06:13:21.787Z,10.80
2022-12-13T06:15:52.830Z,10.45
2022-12-13T06:18:34.657Z,11.02
2022-12-13T06:21:06.147Z,10.23
2022-12-13T06:23:37.014Z,10.03
2022-12-13T06:26:05.996Z,9.63
2022-12-13T06:28:36.967Z,9.40
2022-12-13T06:31:06.529Z,9.02
2022-12-13T06:33:38.937Z,9.73
2022-12-13T06:36:06.534Z,10.05
2022-12-13T06:38:43.120Z,9.10
2022-12-13T06:45:22.589Z,7.57
2022-12-13T06:47:49.774Z,9.13
2022-12-13T06:50:20.081Z,8.73
2022-12-13T06:52:49.898Z,8.45
2022-12-13T06:55:24.084Z,8.88
2022-12-13T06:57:53.497Z,9.50
2022-12-13T07:00:22.174Z,7.72
2022-12-13T07:02:56.805Z,8.65
2022-12-13T07:05:25.209Z,8.25
2022-12-13T07:07:52.313Z,8.68
2022-12-13T07:10:24.610Z,8.00
2022-12-13T07:12:51.789Z,8.15
2022-12-13T07:15:19.197Z,7.68
2022-12-13T07:17:50.750Z,6.75
2022-12-13T07:20:20.424Z,7.20
2022-12-13T07:22:58.847Z,7.95
2022-12-13T07:25:29.811Z,8.20
2022-12-13T07:28:02.384Z,8.68
2022-12-13T07:30:41.422Z,9.38
2022-12-13T07:33:22.763Z,9.25
2022-12-13T07:35:55.247Z,9.20
2022-12-13T07:38:22.708Z,9.95
2022-12-13T07:40:50.208Z,10.63
2022-12-13T07:43:19.652Z,9.45
2022-12-13T07:45:49.673Z,10.95
2022-12-13T07:48:21.900Z,10.77
2022-12-13T07:50:55.317Z,11.18
2022-12-13T07:53:24.894Z,9.98
2022-12-13T07:55:54.933Z,9.40
2022-12-13T07:58:24.461Z,17.00
2022-12-13T08:00:59.145Z,16.45
2022-12-13T08:03:29.801Z,12.48
2022-12-13T08:06:02.088Z,14.05
2022-12-13T08:08:31.194Z,11.68
2022-12-13T08:11:08.325Z,14.20
2022-12-13T08:13:35.727Z,11.15
2022-12-13T08:16:26.150Z,16.02
2022-12-13T08:19:04.051Z,9.82
2022-12-13T08:21:55.569Z,9.48
2022-12-13T08:24:27.693Z,8.00
2022-12-13T08:27:00.976Z,8.02
2022-12-13T08:29:34.588Z,8.05
2022-12-13T08:32:08.312Z,8.40
2022-12-13T08:34:35.507Z,7.07
2022-12-13T08:37:04.558Z,8.43
2022-12-13T08:39:35.569Z,7.57
2022-12-13T08:42:16.018Z,7.00
2022-12-13T08:44:50.232Z,7.00
2022-12-13T08:47:27.028Z,6.90
2022-12-13T08:50:01.380Z,7.72
2022-12-13T08:52:39.272Z,8.40
2022-12-13T08:55:14.659Z,7.93
2022-12-13T08:57:44.062Z,11.52
2022-12-13T09:00:19.350Z,7.38
2022-12-13T09:02:49.366Z,8.48
2022-12-13T09:05:33.539Z,9.15
2022-12-13T09:08:23.534Z,9.73
2022-12-13T09:11:10.840Z,7.53
2022-12-13T09:13:54.198Z,7.15
2022-12-13T09:16:30.614Z,7.25
2022-12-13T09:19:25.020Z,8.25
2022-12-13T09:21:53.756Z,7.25
2022-12-13T09:24:36.315Z,8.75
2022-12-13T09:27:09.283Z,8.23
2022-12-13T09:29:38.249Z,8.60
2022-12-13T09:32:08.476Z,8.68
2022-12-13T09:34:38.393Z,10.27
2022-12-13T09:37:13.565Z,7.93
2022-12-13T09:39:54.993Z,8.63
2022-12-13T09:42:30.549Z,9.23
2022-12-13T09:45:05.076Z,10.77
2022-12-13T09:47:47.151Z,8.15
2022-12-13T09:50:37.504Z,10.10
2022-12-13T09:53:12.056Z,8.82
2022-12-13T09:55:50.507Z,10.52
2022-12-13T09:58:32.030Z,10.18
2022-12-13T10:01:00.070Z,9.20
2022-12-13T10:03:29.937Z,10.00
2022-12-13T10:06:00.258Z,9.55
2022-12-13T10:08:40.890Z,11.30
2022-12-13T10:11:17.066Z,10.60
2022-12-13T10:13:50.848Z,10.13
2022-12-13T10:16:38.375Z,11.27
2022-12-13T10:19:28.827Z,9.70
2022-12-13T10:22:01.869Z,11.30
2022-12-13T10:24:52.024Z,10.63
2022-12-13T10:27:40.336Z,11.65
2022-12-13T10:30:10.946Z,12.70
2022-12-13T10:32:55.073Z,11.93
2022-12-13T10:35:26.866Z,11.50
2022-12-13T10:37:57.999Z,11.73
2022-12-13T10:40:31.850Z,10.45
2022-12-13T10:43:20.884Z,12.90
2022-12-13T10:46:25.124Z,12.18
2022-12-13T10:48:53.077Z,12.30
2022-12-13T10:51:28.081Z,12.63
2022-12-13T10:54:01.494Z,12.82
2022-12-13T10:56:39.953Z,13.02
2022-12-13T10:59:31.462Z,14.55
2022-12-13T11:02:00.164Z,16.13
2022-12-13T11:04:32.767Z,15.10
2022-12-13T11:07:02.588Z,13.95
2022-12-13T11:09:38.270Z,14.20
2022-12-13T11:12:27.001Z,11.88
2022-12-13T11:14:56.674Z,13.02
2022-12-13T11:17:30.868Z,12.38
2022-12-13T11:20:02.497Z,15.15
2022-12-13T11:22:32.117Z,12.48
2022-12-13T11:25:22.286Z,14.05
2022-12-13T11:28:26.285Z,13.13
2022-12-13T11:31:13.753Z,13.57
2022-12-13T11:34:09.615Z,13.85
2022-12-13T11:36:52.797Z,13.57
2022-12-13T11:39:36.781Z,15.00
2022-12-13T11:42:19.177Z,14.75
2022-12-13T11:45:02.095Z,14.50
2022-12-13T11:47:48.197Z,15.70
2022-12-13T11:50:33.652Z,15.43
2022-12-13T11:53:27.159Z,17.42
2022-12-13T11:56:10.112Z,17.50
2022-12-13T11:59:07.121Z,16.88
2022-12-13T12:01:40.729Z,15.05
2022-12-13T12:04:44.279Z,16.25
2022-12-13T12:07:32.429Z,15.32
2022-12-13T12:10:30.502Z,15.35
2022-12-13T12:13:23.747Z,13.77
2022-12-13T12:16:28.927Z,14.43
2022-12-13T12:19:01.463Z,16.25
2022-12-13T12:22:12.070Z,14.48
2022-12-13T12:24:49.247Z,14.20
2022-12-13T12:27:23.101Z,16.00
2022-12-13T12:30:08.619Z,15.10
2022-12-13T12:32:58.716Z,14.90
2022-12-13T12:35:52.606Z,14.77
2022-12-13T12:38:38.330Z,14.95
2022-12-13T12:41:21.416Z,16.20
2022-12-13T12:44:30.651Z,15.60
2022-12-13T12:47:49.045Z,16.95
2022-12-13T12:50:12.584Z,16.33
2022-12-13T12:52:52.113Z,16.98
2022-12-13T12:55:36.681Z,17.17
2022-12-13T12:58:33.062Z,14.02
2022-12-13T13:01:24.858Z,14.13
2022-12-13T13:03:54.796Z,14.70
2022-12-13T13:06:43.602Z,15.75
2022-12-13T13:09:13.950Z,15.95
2022-12-13T13:11:46.212Z,14.93
2022-12-13T13:14:36.958Z,14.75
2022-12-13T13:17:16.792Z,16.55
2022-12-13T13:19:48.567Z,15.77
2022-12-13T13:22:32.550Z,14.23
2022-12-13T13:25:22.942Z,13.67
2022-12-13T13:28:00.153Z,15.02
2022-12-13T13:30:28.244Z,13.05
2022-12-13T13:32:57.901Z,14.35
2022-12-13T13:35:33.511Z,14.77
2022-12-13T13:38:24.008Z,16.08
2022-12-13T13:40:51.320Z,13.80
2022-12-13T13:43:32.480Z,14.82
2022-12-13T13:46:13.257Z,14.65
2022-12-13T13:48:58.509Z,13.98
2022-12-13T13:54:48.461Z,14.90
2022-12-13T13:57:17.930Z,15.65
2022-12-13T13:59:51.084Z,14.90
2022-12-13T14:02:27.177Z,16.38
2022-12-13T14:05:24.392Z,14.77
2022-12-13T14:08:20.607Z,15.73
2022-12-13T14:11:10.656Z,15.85
2022-12-13T14:14:38.634Z,16.42
2022-12-13T14:17:56.741Z,15.38
2022-12-13T14:20:36.262Z,15.75
2022-12-13T14:23:29.413Z,17.48
2022-12-13T14:26:11.071Z,16.98
2022-12-13T14:28:48.450Z,16.42
2022-12-13T14:31:22.342Z,16.50
2022-12-13T14:33:56.823Z,16.52
2022-12-13T14:36:35.142Z,15.15
2022-12-13T14:39:05.232Z,16.40
2022-12-13T14:41:49.799Z,17.63
2022-12-13T14:44:33.800Z,15.98
2022-12-13T14:47:07.982Z,18.10
2022-12-13T14:49:41.825Z,17.23
2022-12-13T14:52:29.111Z,17.50
2022-12-13T14:55:01.539Z,16.13
2022-12-13T14:57:31.918Z,17.63
2022-12-13T15:00:03.979Z,17.48
2022-12-13T15:02:37.365Z,17.02
2022-12-13T15:05:07.482Z,17.67
2022-12-13T15:07:41.841Z,17.88
2022-12-13T15:10:34.155Z,15.68
2022-12-13T15:13:04.669Z,14.98
2022-12-13T15:15:39.430Z,17.73
2022-12-13T15:18:21.182Z,18.25
2022-12-13T15:20:52.061Z,15.60
2022-12-13T15:23:30.954Z,17.55
2022-12-13T15:26:28.761Z,18.52
2022-12-13T15:29:09.957Z,19.00
2022-12-13T15:31:40.474Z,20.35
2022-12-13T15:34:28.509Z,21.23
2022-12-13T15:37:28.370Z,19.92
2022-12-13T15:40:04.112Z,19.92
2022-12-13T15:42:38.472Z,19.50
2022-12-13T15:45:17.492Z,18.30
2022-12-13T15:50:36.723Z,18.15
2022-12-13T15:53:27.157Z,19.23
2022-12-13T15:55:54.715Z,17.98
2022-12-13T15:58:26.848Z,22.08
2022-12-13T16:01:05.365Z,37.72
2022-12-13T16:03:51.080Z,31.20
2022-12-13T16:06:22.196Z,27.98
2022-12-13T16:08:56.182Z,23.73
2022-12-13T16:11:47.207Z,23.42
2022-12-13T16:14:32.967Z,23.95
2022-12-13T16:17:14.494Z,21.05
2022-12-13T16:19:42.580Z,23.90
2022-12-13T16:22:11.954Z,22.27
2022-12-13T16:24:39.512Z,19.55
2022-12-13T16:27:08.313Z,18.83
2022-12-13T16:29:41.326Z,19.02
2022-12-13T16:32:13.228Z,27.48
2022-12-13T16:34:45.619Z,28.92
2022-12-13T16:37:26.361Z,26.70
2022-12-13T16:39:55.884Z,22.38
2022-12-13T16:42:25.873Z,25.50
2022-12-13T16:45:17.710Z,24.42
2022-12-13T16:47:49.240Z,25.58
2022-12-13T16:50:22.765Z,23.38
2022-12-13T16:52:50.061Z,22.92
2022-12-13T16:55:17.552Z,27.08
2022-12-13T16:57:59.421Z,27.33
2022-12-13T17:00:30.429Z,23.25
2022-12-13T17:02:58.977Z,28.13
2022-12-13T17:05:28.622Z,28.25
2022-12-13T17:08:01.354Z,34.22
2022-12-13T17:10:28.726Z,26.50
2022-12-13T17:12:58.454Z,30.55
2022-12-13T17:15:28.105Z,29.20
2022-12-13T17:17:59.962Z,33.55
2022-12-13T17:20:30.052Z,31.42
2022-12-13T17:22:59.327Z,24.80
2022-12-13T17:25:27.366Z,34.25
2022-12-13T17:27:54.674Z,31.38
2022-12-13T17:30:23.461Z,33.88
2022-12-13T17:32:53.385Z,31.92
2022-12-13T17:35:20.988Z,34.45
2022-12-13T17:37:48.499Z,34.30
2022-12-13T17:40:21.138Z,35.78
2022-12-13T17:42:54.682Z,30.65
2022-12-13T17:45:23.120Z,34.65
2022-12-13T17:47:54.355Z,35.63
2022-12-13T17:50:22.296Z,36.55
2022-12-13T17:52:49.384Z,46.47
2022-12-13T17:55:18.940Z,41.78
2022-12-13T17:57:46.516Z,37.47
2022-12-13T18:00:16.945Z,35.78
2022-12-13T18:02:55.279Z,34.05
2022-12-13T18:05:26.483Z,30.35
2022-12-13T18:07:53.636Z,33.45
2022-12-13T18:10:27.910Z,33.83
2022-12-13T18:13:00.309Z,32.50
2022-12-13T18:15:27.893Z,33.33
2022-12-13T18:18:13.912Z,35.10
2022-12-13T18:20:44.715Z,33.60
2022-12-13T18:23:12.117Z,34.83
2022-12-13T18:25:40.350Z,35.78
2022-12-13T18:28:09.535Z,36.85
2022-12-13T18:30:38.474Z,34.97
2022-12-13T18:33:12.608Z,37.33
2022-12-13T18:35:40.506Z,36.50
2022-12-13T18:38:07.700Z,36.50
2022-12-13T18:40:37.483Z,35.15
2022-12-13T18:43:04.820Z,38.10
2022-12-13T18:45:32.194Z,38.85
2022-12-13T18:47:59.384Z,37.42
2022-12-13T18:50:26.988Z,36.92
2022-12-13T18:52:56.549Z,34.53
2022-12-13T18:55:28.545Z,35.05
2022-12-13T18:57:56.113Z,35.78
2022-12-13T19:00:26.991Z,37.30
2022-12-13T19:02:57.015Z,37.10
2022-12-13T19:05:25.542Z,38.00
2022-12-13T19:07:53.006Z,37.67
2022-12-13T19:10:23.299Z,36.00
2022-12-13T19:12:53.514Z,40.05
2022-12-13T19:15:22.216Z,37.42
2022-12-13T19:17:52.391Z,40.00
2022-12-13T19:20:22.899Z,40.85
2022-12-13T19:22:50.384Z,41.53
2022-12-13T19:25:21.277Z,43.75
2022-12-13T19:27:49.209Z,39.88
2022-12-13T19:30:22.524Z,41.38
2022-12-13T19:32:50.228Z,39.70
2022-12-13T19:35:18.329Z,39.90
2022-12-13T19:37:46.847Z,41.42
2022-12-13T19:40:22.854Z,39.00
2022-12-13T19:42:50.711Z,39.97
2022-12-13T19:45:19.097Z,41.15
2022-12-13T19:47:49.320Z,36.67
2022-12-13T19:50:19.655Z,39.65
2022-12-13T19:52:49.301Z,39.55
2022-12-13T19:55:21.575Z,40.60
2022-12-13T19:57:49.285Z,40.38
2022-12-13T20:00:21.426Z,40.58
2022-12-13T20:02:51.074Z,43.17
2022-12-13T20:05:21.004Z,41.95
2022-12-13T20:07:53.881Z,41.75
2022-12-13T20:10:21.794Z,42.42
2022-12-13T20:12:52.088Z,44.65
2022-12-13T20:15:22.361Z,47.75
2022-12-13T20:17:51.654Z,46.92
2022-12-13T20:20:25.725Z,47.28
2022-12-13T20:23:01.469Z,44.55
2022-12-13T20:25:31.505Z,43.15
2022-12-13T20:27:58.783Z,43.72
2022-12-13T20:30:26.441Z,42.67
2022-12-13T20:32:56.273Z,42.03
2022-12-13T20:35:24.182Z,40.45
2022-12-13T20:37:54.484Z,41.67
2022-12-13T20:40:26.112Z,42.25
2022-12-13T20:42:54.178Z,39.03
2022-12-13T20:45:23.992Z,40.17
2022-12-13T20:47:56.066Z,40.50
2022-12-13T20:50:25.941Z,38.50
2022-12-13T20:52:53.615Z,37.97
2022-12-13T20:55:22.741Z,41.95
2022-12-13T20:57:52.817Z,40.08
2022-12-13T21:00:23.041Z,42.60
2022-12-13T21:02:50.849Z,36.00
2022-12-13T21:05:20.961Z,41.03
2022-12-13T21:08:11.852Z,43.58
2022-12-13T21:10:42.327Z,35.90
2022-12-13T21:13:15.871Z,41.15
2022-12-13T21:15:47.084Z,40.13
2022-12-13T21:18:17.268Z,43.25
2022-12-13T21:20:48.035Z,42.90
2022-12-13T21:23:18.613Z,43.35
2022-12-13T21:25:48.284Z,45.85
2022-12-13T21:28:24.871Z,45.08
2022-12-13T21:31:03.143Z,44.58
2022-12-13T21:33:38.055Z,44.72
2022-12-13T21:36:11.742Z,43.25
2022-12-13T21:38:39.918Z,45.17
2022-12-13T21:41:09.236Z,47.10
2022-12-13T21:43:49.023Z,43.92
2022-12-13T21:46:19.715Z,45.85
2022-12-13T21:48:52.171Z,45.15
2022-12-13T21:51:24.865Z,44.08
2022-12-13T21:53:55.921Z,44.38
2022-12-13T21:56:45.752Z,43.00
2022-12-13T21:59:21.141Z,45.47
2022-12-13T22:02:14.262Z,44.67
2022-12-13T22:04:50.807Z,44.47
2022-12-13T22:07:38.587Z,43.83
2022-12-13T22:10:11.928Z,43.10
2022-12-13T22:12:43.202Z,39.20
2022-12-13T22:15:15.626Z,39.75
2022-12-13T22:17:43.425Z,40.83
2022-12-13T22:20:16.093Z,43.78
2022-12-13T22:22:49.117Z,40.92
2022-12-13T22:25:16.305Z,40.67
2022-12-13T22:27:44.929Z,43.33
2022-12-13T22:30:12.627Z,42.85
2022-12-13T22:32:47.971Z,40.17
2022-12-13T22:35:16.202Z,37.78
2022-12-13T22:37:44.421Z,39.40
2022-12-13T22:40:18.354Z,41.38
2022-12-13T22:42:48.432Z,41.47
2022-12-13T22:45:16.632Z,39.58
2022-12-13T22:47:45.130Z,38.75
2022-12-13T22:50:18.476Z,36.97
2022-12-13T22:52:46.739Z,35.05
2022-12-13T22:55:17.238Z,36.53
2022-12-13T22:57:48.451Z,38.33
2022-12-13T23:00:19.124Z,41.58
2022-12-13T23:05:25.026Z,37.40
2022-12-13T23:07:54.708Z,41.08
2022-12-13T23:10:48.128Z,37.83
2022-12-13T23:13:18.328Z,40.25
2022-12-13T23:15:49.469Z,41.90
2022-12-13T23:18:42.543Z,43.67
2022-12-13T23:21:13.105Z,43.97
2022-12-13T23:23:41.372Z,47.80
2022-12-13T23:26:20.258Z,48.45
2022-12-13T23:28:53.059Z,47.22
2022-12-13T23:31:20.469Z,47.20
2022-12-13T23:33:49.863Z,47.83
2022-12-13T23:36:25.976Z,43.75
2022-12-13T23:39:03.041Z,41.78
2022-12-13T23:41:45.370Z,42.28
2022-12-13T23:44:21.651Z,44.40
2022-12-13T23:46:53.983Z,42.33
2022-12-13T23:49:21.397Z,40.13
2022-12-13T23:52:05.935Z,39.80
2022-12-13T23:54:37.446Z,40.85
2022-12-13T23:57:04.949Z,38.97
2022-12-13T23:59:41.074Z,39.40
